Huntersland, New York
Current Conditions -  °F | °C
As of 8:51 PM on Thursday 20 Nov 2014 (Local Time) from KALB Reporting Station
Few Clouds Few Clouds  
Wind Chill: 22°   Ceiling: Unl
Heat Index: 22°   Visibility: 10mi
Dew Point: 15°   Wind: 3mph
Humidity: 75%   Direction: 230°SW
Pressure: 29.94"   Gusts: NA
Location:  42.5337°N, 74.3385°W
Report Text: KALB 210151Z 23003KT 10SM FEW055 M06/M09 A2994 RMK AO2 SLP144 T10561094
Loading
Personal Weather Stations






























Interactive Weather Map New forecast layout! Learn more

10-Day Weather Forecast

Advertisements
Track Severe Weather on mobile